Time;durP1;ratioP1;P1;durP2;ratioP2;P2;SDS_P1;SDS_P2;PMS_P1;PMS_P2;Temp;Humidity;BMP_temperature;BMP_pressure;BME280_temperature;BME280_humidity;BME280_pressure;Samples;Min_cycle;Max_cycle;Signal;HPM_P1;HPM_P2
2022/10/21 00:01:08;;;;;;;3.35;2.33;;;;;;;12.60;100.00;100528.00;5014716;28;20045;-65
2022/10/21 00:03:33;;;;;;;6.30;3.05;;;;;;;12.54;100.00;100515.97;5014701;28;20081;-65
2022/10/21 00:05:59;;;;;;;3.30;2.45;;;;;;;12.70;100.00;100511.13;5013418;28;20034;-65
2022/10/21 00:08:24;;;;;;;5.25;2.85;;;;;;;12.70;100.00;100513.06;5014491;28;20045;-65
2022/10/21 00:10:58;;;;;;;6.63;2.00;;;;;;;12.63;99.78;100505.66;5014097;28;20037;-65
2022/10/21 00:13:27;;;;;;;7.93;2.72;;;;;;;12.80;100.00;100503.47;5014186;28;20399;-65
2022/10/21 00:15:59;;;;;;;5.25;2.42;;;;;;;12.93;99.04;100496.66;5013138;28;20045;-65
2022/10/21 00:18:25;;;;;;;4.97;2.70;;;;;;;12.93;99.46;100502.06;5014297;28;20034;-65
2022/10/21 00:20:51;;;;;;;5.15;2.63;;;;;;;12.77;98.67;100490.72;5014506;28;20049;-65
2022/10/21 00:23:16;;;;;;;6.30;2.72;;;;;;;12.86;99.80;100493.88;5014286;28;20030;-65
2022/10/21 00:25:41;;;;;;;4.78;2.58;;;;;;;12.85;99.36;100489.66;5013284;28;20484;-65
2022/10/21 00:28:07;;;;;;;7.47;2.85;;;;;;;12.78;100.00;100494.97;5014074;28;20497;-65
2022/10/21 00:30:32;;;;;;;4.00;2.58;;;;;;;12.68;100.00;100491.81;5013935;28;20041;-65
2022/10/21 00:32:57;;;;;;;4.57;2.70;;;;;;;12.81;100.00;100496.94;5014043;28;20056;-65
2022/10/21 00:35:23;;;;;;;6.47;2.70;;;;;;;12.66;100.00;100486.00;5012975;28;20046;-66
2022/10/21 00:37:48;;;;;;;5.43;2.78;;;;;;;12.81;100.00;100486.91;5029500;28;20076;-66
2022/10/21 00:40:14;;;;;;;5.63;2.80;;;;;;;12.94;99.96;100492.81;5013897;28;20022;-65
2022/10/21 00:42:39;;;;;;;3.50;2.30;;;;;;;13.00;99.80;100483.19;5011422;28;20508;-65
2022/10/21 00:45:13;;;;;;;6.75;3.25;;;;;;;12.94;99.27;100476.59;5012662;28;20042;-65
2022/10/21 00:48:23;;;;;;;5.00;2.70;;;;;;;13.01;99.99;100482.03;5013792;28;20117;-65
2022/10/21 00:50:56;;;;;;;7.00;3.47;;;;;;;12.97;100.00;100465.03;4975653;28;20053;-65
2022/10/21 00:53:23;;;;;;;5.90;3.25;;;;;;;13.02;99.21;100441.13;5013019;28;20042;-65
2022/10/21 00:55:53;;;;;;;7.60;3.30;;;;;;;13.05;98.81;100445.03;5012968;28;20095;-65
2022/10/21 00:58:22;;;;;;;5.90;2.92;;;;;;;13.07;99.29;100446.19;5013192;28;20075;-65
2022/10/21 01:00:49;;;;;;;5.07;2.85;;;;;;;13.13;98.38;100442.00;5013381;28;20116;-65
2022/10/21 01:03:14;;;;;;;6.30;3.25;;;;;;;13.03;99.19;100431.06;5013336;28;20042;-65
2022/10/21 01:05:42;;;;;;;4.50;2.58;;;;;;;13.05;98.81;100442.31;5012453;28;20029;-65
2022/10/21 01:08:07;;;;;;;5.22;2.50;;;;;;;13.05;98.57;100435.00;5027737;28;20038;-65
2022/10/21 01:10:32;;;;;;;6.60;2.92;;;;;;;12.87;98.22;100431.38;5012928;28;20034;-65
2022/10/21 01:13:13;;;;;;;5.45;3.15;;;;;;;12.84;100.00;100436.72;5013335;28;20034;-65
2022/10/21 01:15:54;;;;;;;7.75;2.88;;;;;;;12.65;100.00;100432.34;5012477;28;20038;-66
2022/10/21 01:18:54;;;;;;;7.20;3.25;;;;;;;12.73;100.00;100423.16;5012945;28;20038;-65
2022/10/21 01:21:29;;;;;;;7.13;2.90;;;;;;;12.82;100.00;100412.78;5011904;28;20084;-65
2022/10/21 01:24:13;;;;;;;5.25;2.75;;;;;;;12.89;100.00;100414.78;5012580;28;20431;-65
2022/10/21 01:26:50;;;;;;;3.85;2.50;;;;;;;13.01;99.85;100411.75;5013213;28;20030;-65
2022/10/21 01:29:26;;;;;;;9.75;3.25;;;;;;;12.98;99.53;100412.50;5032679;28;20037;-65
2022/10/21 01:32:08;;;;;;;6.45;3.42;;;;;;;13.08;100.00;100396.41;5031060;28;20041;-65
2022/10/21 01:34:42;;;;;;;5.97;2.92;;;;;;;13.07;99.80;100394.06;5031739;28;20041;-65
2022/10/21 01:37:36;;;;;;;4.70;2.97;;;;;;;13.16;100.00;100394.50;5016172;28;20038;-65
2022/10/21 01:40:13;;;;;;;6.15;3.17;;;;;;;13.20;99.46;100398.00;5012976;28;20121;-65
2022/10/21 01:42:50;;;;;;;5.65;3.38;;;;;;;13.16;99.53;100389.09;5009842;28;20037;-65
2022/10/21 01:45:30;;;;;;;5.13;3.10;;;;;;;13.07;100.00;100391.34;5011415;28;20104;-65
2022/10/21 01:48:01;;;;;;;6.93;3.20;;;;;;;13.14;100.00;100389.44;5012726;28;20088;-65
2022/10/21 01:50:30;;;;;;;5.50;3.42;;;;;;;13.21;99.69;100384.09;5012499;28;20117;-65
2022/10/21 01:53:00;;;;;;;6.90;3.67;;;;;;;13.13;99.64;100384.44;5012624;28;20044;-65
2022/10/21 01:55:31;;;;;;;12.02;4.63;;;;;;;13.12;99.39;100391.78;5011451;28;20141;-65
2022/10/21 01:58:06;;;;;;;6.53;3.60;;;;;;;13.16;99.85;100376.34;5027842;28;20033;-65
2022/10/21 02:00:34;;;;;;;6.63;2.75;;;;;;;13.18;99.56;100384.09;5011748;28;20088;-65
2022/10/21 02:03:05;;;;;;;4.80;3.22;;;;;;;12.88;99.96;100367.25;5012292;28;20609;-65
2022/10/21 02:05:33;;;;;;;7.28;3.50;;;;;;;12.95;100.00;100370.78;5011587;28;20038;-65
2022/10/21 02:07:59;;;;;;;6.63;3.20;;;;;;;12.99;100.00;100371.56;5027076;28;20029;-65
2022/10/21 02:10:33;;;;;;;8.57;3.47;;;;;;;12.98;99.96;100370.03;5012187;28;20038;-65
2022/10/21 02:13:02;;;;;;;5.70;2.63;;;;;;;12.94;100.00;100360.34;5011664;28;20088;-65
2022/10/21 02:15:29;;;;;;;6.32;3.35;;;;;;;12.92;100.00;100368.06;5011062;28;20057;-65
2022/10/21 02:18:01;;;;;;;7.20;3.53;;;;;;;12.96;100.00;100355.34;5026970;28;20041;-65
2022/10/21 02:20:32;;;;;;;8.38;3.38;;;;;;;12.99;100.00;100347.25;5026027;28;20120;-65
2022/10/21 02:22:58;;;;;;;7.40;3.72;;;;;;;13.06;100.00;100350.03;5012301;28;20041;-65
2022/10/21 02:25:31;;;;;;;7.65;3.67;;;;;;;12.95;100.00;100343.75;5010958;28;20045;-65
2022/10/21 02:27:56;;;;;;;6.82;3.13;;;;;;;13.01;100.00;100339.53;5012204;28;20121;-65
2022/10/21 02:30:22;;;;;;;8.70;3.67;;;;;;;13.06;100.00;100336.53;5011596;28;20160;-65
2022/10/21 02:32:53;;;;;;;6.10;3.35;;;;;;;13.04;100.00;100333.44;5011988;28;20068;-65
2022/10/21 02:35:24;;;;;;;6.75;3.05;;;;;;;13.13;99.97;100322.25;5011011;28;20152;-65
2022/10/21 02:37:57;;;;;;;6.00;2.90;;;;;;;13.16;99.93;100321.50;5011937;28;20042;-65
2022/10/21 02:40:32;;;;;;;7.05;3.28;;;;;;;13.23;99.00;100325.00;5011643;28;20022;-65
2022/10/21 02:43:14;;;;;;;7.07;3.00;;;;;;;13.10;99.76;100329.22;5010390;28;20149;-65
2022/10/21 02:45:39;;;;;;;8.13;3.97;;;;;;;13.07;100.00;100351.56;5010793;28;20414;-65
2022/10/21 02:48:05;;;;;;;7.78;3.92;;;;;;;13.20;99.29;100338.53;5011328;28;20053;-65
2022/10/21 02:50:30;;;;;;;5.38;3.08;;;;;;;12.92;100.00;100338.34;5011571;28;20034;-65
2022/10/21 02:52:56;;;;;;;5.95;2.75;;;;;;;12.70;100.00;100338.22;5011726;28;20045;-65
2022/10/21 02:55:21;;;;;;;8.77;3.55;;;;;;;12.79;100.00;100339.81;5010444;28;20124;-65
2022/10/21 02:57:47;;;;;;;8.00;3.30;;;;;;;12.87;100.00;100336.78;5011535;28;20037;-65
2022/10/21 03:00:13;;;;;;;6.65;3.10;;;;;;;12.93;100.00;100327.13;5011598;28;20065;-65
2022/10/21 03:02:38;;;;;;;7.78;3.55;;;;;;;12.97;100.00;100321.78;5011678;28;20510;-65
2022/10/21 03:05:04;;;;;;;7.25;3.47;;;;;;;12.98;100.00;100321.38;5010096;28;20124;-65
2022/10/21 03:07:29;;;;;;;6.57;3.67;;;;;;;13.00;100.00;100319.09;5026853;28;20430;-65
2022/10/21 03:09:57;;;;;;;4.32;3.03;;;;;;;13.07;100.00;100323.75;5011774;28;20112;-65
2022/10/21 03:12:23;;;;;;;7.30;3.88;;;;;;;13.10;100.00;100323.03;5009952;28;20061;-65
2022/10/21 03:14:48;;;;;;;6.32;3.28;;;;;;;13.11;100.00;100324.56;5010611;28;20116;-66
2022/10/21 03:17:13;;;;;;;6.32;3.42;;;;;;;13.12;100.00;100321.50;5025702;28;20135;-65
2022/10/21 03:19:39;;;;;;;7.88;4.28;;;;;;;13.17;100.00;100317.63;5035643;28;20033;-65
2022/10/21 03:22:04;;;;;;;5.93;3.67;;;;;;;13.15;99.87;100315.31;5017934;28;20030;-65
2022/10/21 03:24:30;;;;;;;7.38;3.42;;;;;;;13.15;99.78;100303.72;5017112;28;20539;-65
2022/10/21 03:26:55;;;;;;;7.78;3.63;;;;;;;13.12;100.00;100307.97;5017780;28;20498;-65
2022/10/21 03:29:20;;;;;;;6.43;3.05;;;;;;;13.15;100.00;100314.53;5017800;28;20431;-66
2022/10/21 03:31:46;;;;;;;8.43;3.38;;;;;;;13.08;99.91;100309.88;5017576;28;20042;-66
2022/10/21 03:34:11;;;;;;;9.32;3.83;;;;;;;13.05;100.00;100299.03;5016562;28;20046;-66
2022/10/21 03:36:36;;;;;;;5.22;2.80;;;;;;;13.05;100.00;100297.13;5017760;28;20046;-65
2022/10/21 03:39:02;;;;;;;8.30;4.05;;;;;;;13.06;100.00;100289.78;5017444;28;20057;-65
2022/10/21 03:41:27;;;;;;;4.80;2.72;;;;;;;13.07;99.99;100277.81;5016349;28;20388;-65
2022/10/21 03:43:52;;;;;;;8.52;4.28;;;;;;;13.10;100.00;100274.34;5015522;28;20085;-65
2022/10/21 03:46:18;;;;;;;10.57;4.43;;;;;;;13.12;99.78;100266.63;5017381;28;20044;-65
2022/10/21 03:48:43;;;;;;;9.15;3.95;;;;;;;13.10;99.61;100266.25;5016607;28;20038;-66
2022/10/21 03:51:08;;;;;;;7.90;4.18;;;;;;;13.06;100.00;100271.63;5017069;28;20513;-65
2022/10/21 03:53:34;;;;;;;7.50;3.67;;;;;;;13.06;100.00;100271.63;5017608;28;20028;-65
2022/10/21 03:55:59;;;;;;;10.88;4.10;;;;;;;12.84;100.00;100275.38;5016505;28;20038;-66
2022/10/21 03:58:25;;;;;;;8.20;4.22;;;;;;;12.77;100.00;100269.16;5017393;28;20609;-65
2022/10/21 04:00:51;;;;;;;9.32;4.20;;;;;;;12.79;100.00;100270.34;5017468;28;20037;-66
2022/10/21 04:03:17;;;;;;;7.10;3.70;;;;;;;12.88;100.00;100268.06;5017500;28;20041;-65
2022/10/21 04:05:42;;;;;;;8.90;3.67;;;;;;;12.89;100.00;100260.72;5016515;28;20413;-66
2022/10/21 04:08:08;;;;;;;7.28;4.03;;;;;;;12.92;100.00;100258.03;5017440;28;20117;-66
2022/10/21 04:10:33;;;;;;;10.90;3.95;;;;;;;12.90;100.00;100273.84;5017034;28;20025;-66
2022/10/21 04:12:58;;;;;;;10.65;4.45;;;;;;;12.85;100.00;100252.59;5017307;28;20499;-65
2022/10/21 04:15:24;;;;;;;8.73;3.78;;;;;;;12.93;100.00;100248.75;4981351;23;20043;-66
2022/10/21 04:17:49;;;;;;;7.82;3.53;;;;;;;12.99;100.00;100251.88;4994213;28;20046;-65
2022/10/21 04:20:15;;;;;;;7.97;3.85;;;;;;;12.99;100.00;100241.81;4997123;28;20035;-65
2022/10/21 04:22:40;;;;;;;9.82;4.35;;;;;;;12.99;100.00;100241.81;4996592;28;20482;-65
2022/10/21 04:25:05;;;;;;;7.68;4.53;;;;;;;12.88;99.98;100248.34;5010581;28;20048;-66
2022/10/21 04:27:31;;;;;;;7.50;3.97;;;;;;;12.89;100.00;100255.31;5030817;28;20076;-66
2022/10/21 04:29:56;;;;;;;9.38;4.10;;;;;;;12.93;100.00;100246.06;5013910;28;20542;-65
2022/10/21 04:32:21;;;;;;;10.90;4.82;;;;;;;12.93;99.97;100240.66;5012818;28;20561;-65
2022/10/21 04:34:47;;;;;;;8.23;4.10;;;;;;;12.89;100.00;100239.09;5013029;28;20038;-66
2022/10/21 04:37:12;;;;;;;8.48;3.95;;;;;;;12.82;100.00;100245.25;5014060;28;20037;-66
2022/10/21 04:39:38;;;;;;;9.35;4.50;;;;;;;12.89;100.00;100237.16;5012737;28;20033;-66
2022/10/21 04:42:03;;;;;;;8.60;4.07;;;;;;;12.79;100.00;100237.91;5009916;28;20990;-66
2022/10/21 04:44:29;;;;;;;8.57;4.60;;;;;;;12.78;100.00;100244.44;4995320;28;20037;-65
2022/10/21 04:46:54;;;;;;;11.10;4.68;;;;;;;12.79;100.00;100234.41;5013940;28;20048;-66
2022/10/21 04:49:20;;;;;;;10.73;4.57;;;;;;;12.77;100.00;100250.25;5012468;28;20069;-66
2022/10/21 04:51:45;;;;;;;9.60;4.85;;;;;;;12.76;100.00;100235.16;5013611;28;20055;-66
2022/10/21 04:54:12;;;;;;;8.90;4.38;;;;;;;12.80;100.00;100227.84;5012862;28;20038;-65
2022/10/21 04:56:39;;;;;;;8.20;4.50;;;;;;;12.81;100.00;100230.19;5013688;28;20033;-65
2022/10/21 04:59:05;;;;;;;9.35;4.88;;;;;;;12.79;100.00;100224.38;5012746;28;20096;-66
2022/10/21 05:01:30;;;;;;;10.93;4.50;;;;;;;12.79;100.00;100216.28;5013039;28;20033;-65
2022/10/21 05:03:58;;;;;;;8.90;4.50;;;;;;;12.82;100.00;100220.13;5013125;28;20038;-65
2022/10/21 05:06:24;;;;;;;7.85;3.88;;;;;;;12.81;100.00;100219.38;5012265;28;20092;-65
2022/10/21 05:08:49;;;;;;;11.60;4.97;;;;;;;12.81;99.91;100218.59;5013557;28;20045;-66
2022/10/21 05:11:15;;;;;;;10.38;3.95;;;;;;;12.78;100.00;100216.66;5013139;28;20022;-66
2022/10/21 05:13:44;;;;;;;7.63;4.22;;;;;;;12.58;100.00;100216.94;5012132;28;20034;-66
2022/10/21 05:16:10;;;;;;;8.98;3.60;;;;;;;12.66;100.00;100221.22;5012298;28;20034;-65
2022/10/21 05:18:35;;;;;;;6.70;3.67;;;;;;;12.62;100.00;100223.13;5011925;28;20049;-65
2022/10/21 05:21:00;;;;;;;15.50;4.00;;;;;;;12.51;100.00;100221.53;5013268;28;20072;-66
2022/10/21 05:23:26;;;;;;;5.20;3.25;;;;;;;12.45;100.00;100215.72;5013139;28;20387;-66
2022/10/21 05:25:51;;;;;;;6.95;3.88;;;;;;;12.45;99.98;100223.81;5011168;28;20045;-66
2022/10/21 05:28:18;;;;;;;7.30;3.45;;;;;;;12.52;100.00;100212.31;5013298;28;20058;-65
2022/10/21 05:30:43;;;;;;;6.93;3.42;;;;;;;12.45;99.82;100209.53;5012708;28;20029;-65
2022/10/21 05:33:09;;;;;;;7.88;3.88;;;;;;;12.26;99.44;100205.22;5028056;28;20125;-65
2022/10/21 05:35:35;;;;;;;8.30;3.30;;;;;;;12.23;99.91;100210.59;5011138;28;20038;-65
2022/10/21 05:38:00;;;;;;;7.70;3.53;;;;;;;12.26;100.00;100205.22;5012955;28;20092;-66
2022/10/21 05:40:25;;;;;;;9.77;4.00;;;;;;;12.19;100.00;100220.59;5012652;28;20014;-65
2022/10/21 05:42:51;;;;;;;9.63;4.00;;;;;;;12.11;99.83;100225.16;5012963;28;20056;-66
2022/10/21 05:45:16;;;;;;;7.57;3.75;;;;;;;12.10;100.00;100218.19;5010470;28;20030;-65
2022/10/21 05:47:42;;;;;;;7.80;4.07;;;;;;;12.15;99.98;100212.47;5012710;28;20030;-66
2022/10/21 05:50:09;;;;;;;5.53;3.03;;;;;;;12.15;99.72;100220.56;5012448;28;20044;-65
2022/10/21 05:52:35;;;;;;;12.65;4.22;;;;;;;12.14;99.82;100208.19;5011577;28;20038;-66
2022/10/21 05:55:00;;;;;;;11.57;4.25;;;;;;;12.20;99.54;100217.50;5011500;28;20096;-65
2022/10/21 05:57:25;;;;;;;8.80;3.58;;;;;;;12.20;99.84;100206.72;5012710;28;20045;-66
2022/10/21 05:59:54;;;;;;;7.68;3.63;;;;;;;12.13;99.95;100206.66;5024656;28;20042;-66
2022/10/21 06:02:19;;;;;;;7.45;3.88;;;;;;;12.16;100.00;100205.91;5012346;28;20103;-66
2022/10/21 06:04:44;;;;;;;6.65;3.63;;;;;;;12.21;100.00;100202.88;5011347;28;20037;-66
2022/10/21 06:07:10;;;;;;;7.20;3.85;;;;;;;12.21;100.00;100205.56;5011140;28;20048;-66
2022/10/21 06:09:36;;;;;;;9.40;4.00;;;;;;;12.19;100.00;100218.66;5011442;28;20057;-66
2022/10/21 06:12:02;;;;;;;8.30;3.72;;;;;;;12.19;100.00;100223.28;5027443;28;20038;-66
2022/10/21 06:14:27;;;;;;;7.72;3.90;;;;;;;12.27;100.00;100214.84;5011209;28;20038;-66
2022/10/21 06:16:52;;;;;;;6.82;3.63;;;;;;;12.31;100.00;100210.25;5012084;28;20029;-65
2022/10/21 06:19:18;;;;;;;7.93;4.00;;;;;;;12.36;100.00;100220.69;5011269;28;20079;-65
2022/10/21 06:21:43;;;;;;;8.35;3.70;;;;;;;12.38;100.00;100207.59;5012092;28;20041;-65
2022/10/21 06:24:08;;;;;;;9.73;3.92;;;;;;;12.45;100.00;100206.84;5009665;28;20103;-65
2022/10/21 06:26:34;;;;;;;8.10;3.50;;;;;;;12.48;100.00;100208.81;5012204;28;20049;-66
2022/10/21 06:29:02;;;;;;;7.55;3.63;;;;;;;12.55;100.00;100214.22;5023237;28;20018;-66
2022/10/21 06:31:27;;;;;;;8.50;4.40;;;;;;;12.46;100.00;100209.19;4992054;28;20034;-66
2022/10/21 06:33:53;;;;;;;8.18;4.05;;;;;;;12.52;100.00;100213.06;4991897;28;20426;-65
2022/10/21 06:36:18;;;;;;;10.77;4.60;;;;;;;12.55;100.00;100198.81;4992443;28;20402;-65
2022/10/21 06:38:43;;;;;;;8.98;4.15;;;;;;;12.65;100.00;100208.13;5011829;28;20064;-65
2022/10/21 06:41:12;;;;;;;8.77;3.90;;;;;;;12.67;100.00;100224.72;5011782;28;20061;-66
2022/10/21 06:43:37;;;;;;;7.57;3.95;;;;;;;12.71;100.00;100220.09;5010192;28;20029;-65
2022/10/21 06:46:05;;;;;;;8.30;4.22;;;;;;;12.81;100.00;100224.00;5009829;28;20037;-65
2022/10/21 06:48:31;;;;;;;7.20;3.90;;;;;;;12.75;100.00;100225.53;5010552;28;20030;-66
2022/10/21 06:50:58;;;;;;;9.73;4.68;;;;;;;12.76;100.00;100225.13;5010985;28;20036;-65
2022/10/21 06:53:24;;;;;;;8.25;4.07;;;;;;;12.86;100.00;100232.53;5010053;28;20572;-66
2022/10/21 06:55:49;;;;;;;8.38;4.25;;;;;;;12.91;100.00;100221.31;5009639;28;20034;-66
2022/10/21 06:58:15;;;;;;;9.38;4.05;;;;;;;12.92;100.00;100225.59;5011893;28;20041;-66
2022/10/21 07:00:43;;;;;;;9.57;4.90;;;;;;;13.02;100.00;100229.50;5009647;28;20025;-66
2022/10/21 07:03:08;;;;;;;13.02;4.95;;;;;;;13.02;100.00;100211.34;5010373;28;20045;-66
2022/10/21 07:05:34;;;;;;;9.57;4.05;;;;;;;13.02;100.00;100213.28;5010685;28;20084;-65
2022/10/21 07:07:59;;;;;;;13.45;4.75;;;;;;;13.07;100.00;100221.81;5011462;28;20028;-65
2022/10/21 07:10:24;;;;;;;7.43;4.57;;;;;;;13.09;100.00;100214.09;5011250;28;20045;-66
2022/10/21 07:12:50;;;;;;;9.48;4.03;;;;;;;13.18;100.00;100200.22;5010176;28;20109;-65
2022/10/21 07:15:15;;;;;;;8.65;3.65;;;;;;;13.28;100.00;100205.63;5010164;28;20033;-66
2022/10/21 07:17:41;;;;;;;12.20;4.65;;;;;;;13.29;100.00;100207.19;4993810;28;20033;-65
2022/10/21 07:20:06;;;;;;;7.30;3.95;;;;;;;13.35;100.00;100207.59;5010167;28;20095;-65
2022/10/21 07:22:32;;;;;;;11.73;4.30;;;;;;;13.35;99.88;100202.19;5011460;28;20057;-65
2022/10/21 07:24:58;;;;;;;8.25;4.15;;;;;;;13.30;100.00;100213.34;5008671;28;20034;-65
2022/10/21 07:27:23;;;;;;;7.18;3.90;;;;;;;13.37;100.00;100206.06;5011285;28;20060;-65
2022/10/21 07:29:48;;;;;;;7.65;4.13;;;;;;;13.36;99.95;100193.69;5009850;28;20058;-65
2022/10/21 07:32:14;;;;;;;7.45;3.33;;;;;;;13.42;99.90;100188.66;5011160;28;20034;-65
2022/10/21 07:34:39;;;;;;;7.85;4.40;;;;;;;13.44;99.85;100186.34;5008597;28;20044;-65
2022/10/21 07:37:05;;;;;;;9.38;4.75;;;;;;;13.48;99.78;100184.41;5011141;28;20394;-65
2022/10/21 07:39:31;;;;;;;8.43;4.15;;;;;;;13.53;100.00;100194.84;5009960;28;20069;-65
2022/10/21 07:41:57;;;;;;;7.50;3.97;;;;;;;13.53;99.85;100192.13;5010040;28;20038;-65
2022/10/21 07:44:24;;;;;;;8.32;4.65;;;;;;;13.35;100.00;100194.84;4990157;28;20049;-65
2022/10/21 07:46:50;;;;;;;9.80;4.38;;;;;;;13.44;100.00;100197.16;4991467;28;20122;-65
2022/10/21 07:49:17;;;;;;;9.93;4.53;;;;;;;13.47;100.00;100199.88;4991454;28;20052;-65
2022/10/21 07:51:44;;;;;;;12.70;5.05;;;;;;;13.47;100.00;100215.34;5001766;28;20109;-65
2022/10/21 07:54:10;;;;;;;10.85;4.82;;;;;;;13.51;100.00;100230.41;5010244;28;20077;-65
2022/10/21 07:56:40;;;;;;;9.18;4.55;;;;;;;13.58;100.00;100235.06;5010900;28;20088;-65
2022/10/21 07:59:06;;;;;;;9.45;4.63;;;;;;;13.52;100.00;100239.31;5008320;28;20034;-65
2022/10/21 08:01:32;;;;;;;9.38;4.18;;;;;;;13.50;100.00;100237.00;5010978;28;20065;-65
2022/10/21 08:03:58;;;;;;;10.73;4.88;;;;;;;13.44;100.00;100240.44;5012427;28;20069;-66
2022/10/21 08:06:25;;;;;;;8.77;4.78;;;;;;;13.45;100.00;100239.31;5012968;28;20048;-65
2022/10/21 08:08:51;;;;;;;9.18;4.70;;;;;;;13.36;100.00;100233.47;5013253;28;20312;-65
2022/10/21 08:11:21;;;;;;;10.40;4.38;;;;;;;13.36;100.00;100234.25;5014145;28;20033;-65
2022/10/21 08:13:46;;;;;;;9.80;4.93;;;;;;;13.29;100.00;100238.88;5014446;28;20046;-65
2022/10/21 08:16:12;;;;;;;9.57;4.57;;;;;;;13.34;100.00;100235.78;5012380;28;20083;-65
2022/10/21 08:18:37;;;;;;;10.40;4.93;;;;;;;13.37;100.00;100230.41;5007350;28;20038;-65
2022/10/21 08:21:03;;;;;;;9.05;4.57;;;;;;;13.15;100.00;100219.91;4993710;28;20073;-65
2022/10/21 08:23:29;;;;;;;11.55;4.60;;;;;;;13.30;100.00;100218.78;4993414;28;20034;-65
2022/10/21 08:25:56;;;;;;;9.40;4.38;;;;;;;13.38;100.00;100231.94;5001346;28;20061;-65
2022/10/21 08:28:24;;;;;;;14.27;4.72;;;;;;;13.31;100.00;100223.03;5011979;28;20056;-65
2022/10/21 08:30:50;;;;;;;10.20;4.78;;;;;;;13.51;100.00;100238.53;5012681;28;20084;-65
2022/10/21 08:33:16;;;;;;;10.98;4.32;;;;;;;13.39;100.00;100230.75;5012651;28;20063;-65
2022/10/21 08:35:42;;;;;;;8.75;3.78;;;;;;;13.59;100.00;100239.31;5011065;28;20045;-65
2022/10/21 08:38:08;;;;;;;12.43;4.70;;;;;;;13.59;100.00;100231.97;5027925;28;20104;-65
2022/10/21 08:40:45;;;;;;;9.18;4.53;;;;;;;13.71;100.00;100238.16;5011189;28;20405;-65
2022/10/21 08:43:22;;;;;;;12.43;4.88;;;;;;;13.74;100.00;100232.78;5011558;28;20413;-65
2022/10/21 08:45:54;;;;;;;11.18;5.05;;;;;;;13.69;100.00;100232.34;5007590;28;20034;-65
2022/10/21 08:48:28;;;;;;;9.27;4.65;;;;;;;13.77;100.00;100223.88;4993306;28;20047;-65
2022/10/21 08:50:55;;;;;;;11.57;5.22;;;;;;;13.88;100.00;100221.16;4993008;28;20022;-65
2022/10/21 08:53:36;;;;;;;7.57;4.20;;;;;;;14.00;100.00;100226.16;4991980;28;20073;-65
2022/10/21 08:56:05;;;;;;;8.95;4.78;;;;;;;13.90;100.00;100208.03;4992336;28;20042;-65
2022/10/21 08:58:31;;;;;;;9.00;4.50;;;;;;;13.92;100.00;100211.88;4975420;28;20398;-65
2022/10/21 09:01:02;;;;;;;11.38;4.90;;;;;;;13.91;100.00;100218.47;4991885;28;20041;-65
2022/10/21 09:03:40;;;;;;;11.38;5.13;;;;;;;13.95;100.00;100213.81;5007505;28;20048;-65
2022/10/21 09:06:21;;;;;;;9.85;5.20;;;;;;;13.96;100.00;100209.94;5011858;28;20037;-65
2022/10/21 09:09:02;;;;;;;7.63;4.32;;;;;;;14.06;100.00;100216.50;5011175;28;20037;-65
2022/10/21 09:12:05;;;;;;;11.60;4.57;;;;;;;14.16;100.00;100210.31;5011102;28;20513;-65
2022/10/21 09:14:53;;;;;;;10.60;4.80;;;;;;;14.21;100.00;100207.19;5015909;28;113516;-65
2022/10/21 09:17:28;;;;;;;8.63;4.63;;;;;;;14.17;100.00;100206.41;5017173;28;20042;-65
2022/10/21 09:20:12;;;;;;;11.88;4.75;;;;;;;14.22;100.00;100198.69;5008993;28;20034;-65
2022/10/21 09:23:09;;;;;;;11.77;4.32;;;;;;;14.23;100.00;100189.38;4993732;28;20298;-65
2022/10/21 09:26:11;;;;;;;8.52;4.47;;;;;;;14.29;100.00;100190.56;4992866;28;20037;-65
2022/10/21 09:28:36;;;;;;;10.82;4.72;;;;;;;14.34;100.00;100195.56;4992503;28;20140;-65
2022/10/21 09:31:11;;;;;;;11.05;3.97;;;;;;;14.41;100.00;100190.16;4993335;28;20438;-64
2022/10/21 09:33:37;;;;;;;11.98;5.03;;;;;;;14.52;100.00;100197.50;4992952;28;20049;-65
2022/10/21 09:36:46;;;;;;;10.02;5.07;;;;;;;14.42;100.00;100191.69;5002303;28;20030;-65
2022/10/21 09:39:29;;;;;;;12.75;4.30;;;;;;;14.53;100.00;100180.06;5007550;28;20120;-65
2022/10/21 09:41:57;;;;;;;8.20;3.97;;;;;;;14.58;100.00;100171.50;5011439;28;20048;-65
2022/10/21 09:44:23;;;;;;;10.63;4.78;;;;;;;14.63;100.00;100174.59;5010855;28;20030;-65
2022/10/21 09:46:50;;;;;;;11.40;4.15;;;;;;;14.70;100.00;100171.06;5012599;28;20554;-65
2022/10/21 09:49:29;;;;;;;7.68;4.10;;;;;;;14.78;100.00;100167.16;5012641;28;20037;-65
2022/10/21 09:51:58;;;;;;;8.50;4.60;;;;;;;14.82;100.00;100167.94;5012873;28;20061;-65
2022/10/21 09:54:27;;;;;;;17.88;5.68;;;;;;;14.76;100.00;100167.56;5011089;28;20026;-65
2022/10/21 09:57:09;;;;;;;10.18;4.82;;;;;;;14.86;100.00;100174.09;5013009;28;20044;-65
2022/10/21 09:59:36;;;;;;;10.40;4.70;;;;;;;14.93;100.00;100182.19;5010493;28;20054;-65
2022/10/21 10:02:06;;;;;;;12.27;5.22;;;;;;;14.95;100.00;100183.34;5011099;28;20041;-65
2022/10/21 10:04:33;;;;;;;12.48;4.18;;;;;;;14.99;100.00;100180.63;5011527;28;20532;-65
2022/10/21 10:07:19;;;;;;;9.77;4.90;;;;;;;15.02;100.00;100190.69;5012630;28;20041;-65
2022/10/21 10:09:46;;;;;;;10.40;4.72;;;;;;;15.09;100.00;100185.22;5011827;28;20056;-65
2022/10/21 10:12:19;;;;;;;13.02;5.18;;;;;;;15.16;100.00;100179.75;5011503;28;20034;-65
2022/10/21 10:14:45;;;;;;;14.57;5.28;;;;;;;15.24;100.00;100179.31;5009621;23;20487;-65
2022/10/21 10:17:32;;;;;;;10.77;5.18;;;;;;;15.27;100.00;100183.94;4990468;28;20560;-65
2022/10/21 10:20:04;;;;;;;11.80;5.38;;;;;;;15.41;100.00;100190.44;4975368;28;20038;-65
2022/10/21 10:22:36;;;;;;;11.25;5.20;;;;;;;15.44;100.00;100186.97;4992696;28;20129;-65
2022/10/21 10:25:11;;;;;;;7.78;3.60;;;;;;;15.44;100.00;100195.09;4989565;28;20042;-64
2022/10/21 10:27:52;;;;;;;7.88;4.25;;;;;;;15.55;100.00;100195.78;4992086;28;20482;-65
2022/10/21 10:30:17;;;;;;;8.45;3.72;;;;;;;15.63;100.00;100195.34;4990949;28;20038;-65
2022/10/21 10:32:44;;;;;;;14.57;4.75;;;;;;;15.72;100.00;100195.66;4989417;28;20118;-64
2022/10/21 10:35:23;;;;;;;8.60;4.13;;;;;;;15.95;100.00;100193.13;4971925;28;20050;-65
2022/10/21 10:37:49;;;;;;;8.45;4.07;;;;;;;16.22;100.00;100198.69;4973112;28;20439;-65
2022/10/21 10:40:31;;;;;;;9.95;4.70;;;;;;;16.38;100.00;100184.53;4972916;28;20369;-65
2022/10/21 10:43:12;;;;;;;10.50;4.93;;;;;;;16.33;100.00;100187.72;4971468;28;20146;-65
2022/10/21 10:45:37;;;;;;;11.27;4.82;;;;;;;16.41;100.00;100189.97;4972001;28;20488;-65
2022/10/21 10:48:04;;;;;;;8.73;4.07;;;;;;;16.62;100.00;100200.63;4972957;28;20069;-65
2022/10/21 10:50:49;;;;;;;10.82;4.32;;;;;;;16.57;100.00;100198.34;4989027;28;20042;-65
2022/10/21 10:53:33;;;;;;;8.70;3.92;;;;;;;16.67;100.00;100196.66;4991939;28;20126;-65
2022/10/21 10:56:19;;;;;;;12.25;4.55;;;;;;;16.93;100.00;100193.25;4990966;28;20061;-65
2022/10/21 10:59:24;;;;;;;13.38;5.05;;;;;;;17.05;99.78;100184.53;4977526;28;20083;-65
2022/10/21 11:02:13;;;;;;;11.18;5.38;;;;;;;17.13;99.50;100177.78;4968243;28;20057;-65
2022/10/21 11:05:06;;;;;;;10.30;4.47;;;;;;;16.81;99.58;100177.47;4970573;28;20423;-65
2022/10/21 11:07:38;;;;;;;11.02;4.65;;;;;;;16.85;99.24;100172.75;4987380;28;20125;-65
2022/10/21 11:10:06;;;;;;;;;;;;;;;16.96;99.56;100155.09;4992393;28;20391;-65
2022/10/21 11:12:34;;;;;;;8.77;4.50;;;;;;;16.96;99.01;100152.38;4991940;28;20294;-65
2022/10/21 11:15:00;;;;;;;10.20;4.70;;;;;;;17.04;99.20;100153.84;4988335;28;20092;-65
2022/10/21 11:17:44;;;;;;;9.30;4.03;;;;;;;17.14;98.78;100161.06;4972197;28;20495;-65
2022/10/21 11:20:26;;;;;;;10.73;4.18;;;;;;;17.00;98.61;100161.28;4968417;28;20551;-65
2022/10/21 11:23:28;;;;;;;11.98;4.40;;;;;;;16.98;97.77;100160.91;4953323;28;20043;-65
2022/10/21 11:26:07;;;;;;;8.93;4.28;;;;;;;16.59;99.99;100168.03;4952187;29;20039;-65
2022/10/21 11:28:43;;;;;;;10.35;4.90;;;;;;;16.48;100.00;100156.47;4963556;28;20090;-65